TimeEST,TemperatureF,Dew PointF,Humidity,Sea Level PressureIn,VisibilityMPH,Wind Direction,Wind SpeedMPH,Gust SpeedMPH,PrecipitationIn,Events,Conditions,WindDirDegrees,DateUTC
12:15 AM,60.8,59.0,94,30.09,1.2,Calm,Calm,-,N/A,,Unknown,0,2012-01-24 05:15:00
12:35 AM,59.0,59.0,100,30.09,0.5,Calm,Calm,-,N/A,,Unknown,0,2012-01-24 05:35:00
12:55 AM,60.8,59.0,94,30.09,2.0,South,4.6,-,N/A,,Clear,190,2012-01-24 05:55:00
1:15 AM,60.8,60.8,100,30.08,10.0,South,4.6,-,N/A,,Clear,180,2012-01-24 06:15:00
1:35 AM,60.8,57.2,88,30.09,10.0,Calm,Calm,-,N/A,,Clear,0,2012-01-24 06:35:00
1:55 AM,60.8,57.2,88,30.09,10.0,South,3.5,-,N/A,,Clear,190,2012-01-24 06:55:00
2:15 AM,62.6,59.0,88,30.10,10.0,SW,5.8,-,N/A,,Clear,220,2012-01-24 07:15:00
2:35 AM,62.6,59.0,88,30.09,10.0,South,5.8,-,N/A,,Clear,180,2012-01-24 07:35:00
2:55 AM,62.6,59.0,88,30.09,10.0,South,4.6,-,N/A,,Clear,190,2012-01-24 07:55:00
3:15 AM,60.8,59.0,94,30.10,10.0,Calm,Calm,-,N/A,,Clear,0,2012-01-24 08:15:00
3:35 AM,60.8,59.0,94,30.09,10.0,SSE,4.6,-,N/A,,Clear,150,2012-01-24 08:35:00
3:55 AM,60.8,57.2,88,30.10,10.0,Calm,Calm,-,N/A,,Clear,0,2012-01-24 08:55:00
4:15 AM,60.8,59.0,94,30.12,10.0,West,3.5,-,N/A,,Clear,270,2012-01-24 09:15:00
4:35 AM,60.8,59.0,94,30.13,10.0,West,4.6,-,N/A,,Clear,280,2012-01-24 09:35:00
4:55 AM,60.8,59.0,94,30.13,10.0,Calm,Calm,-,N/A,,Clear,0,2012-01-24 09:55:00
5:15 AM,59.0,55.4,88,30.13,10.0,Calm,Calm,-,N/A,,Clear,0,2012-01-24 10:15:00
5:35 AM,59.0,57.2,94,30.13,5.0,Calm,Calm,-,N/A,,Clear,0,2012-01-24 10:35:00
5:55 AM,59.0,57.2,94,30.14,10.0,Calm,Calm,-,N/A,,Clear,0,2012-01-24 10:55:00
6:15 AM,59.0,57.2,94,30.15,7.0,Calm,Calm,-,N/A,,Clear,0,2012-01-24 11:15:00
6:35 AM,59.0,57.2,94,30.15,7.0,Calm,Calm,-,N/A,,Clear,0,2012-01-24 11:35:00
6:55 AM,59.0,57.2,94,30.16,7.0,Calm,Calm,-,N/A,,Clear,0,2012-01-24 11:55:00
7:15 AM,60.8,59.0,94,30.15,10.0,Calm,Calm,-,N/A,,Scattered Clouds,0,2012-01-24 12:15:00
7:35 AM,59.0,57.2,94,30.16,10.0,Calm,Calm,-,N/A,,Scattered Clouds,0,2012-01-24 12:35:00
7:55 AM,59.0,57.2,94,30.16,5.0,Calm,Calm,-,N/A,,Clear,0,2012-01-24 12:55:00
8:15 AM,60.8,59.0,94,30.17,10.0,Calm,Calm,-,N/A,,Clear,0,2012-01-24 13:15:00
8:35 AM,60.8,59.0,94,30.18,7.0,Calm,Calm,-,N/A,,Clear,0,2012-01-24 13:35:00
8:55 AM,60.8,59.0,94,30.18,7.0,Calm,Calm,-,N/A,,Clear,0,2012-01-24 13:55:00
9:15 AM,62.6,60.8,94,30.18,7.0,Calm,Calm,-,N/A,,Clear,0,2012-01-24 14:15:00
9:35 AM,64.4,60.8,88,30.19,10.0,Calm,Calm,-,N/A,,Scattered Clouds,0,2012-01-24 14:35:00
9:55 AM,64.4,60.8,88,30.20,10.0,Calm,Calm,-,N/A,,Scattered Clouds,0,2012-01-24 14:55:00
10:15 AM,64.4,60.8,88,30.21,10.0,WSW,4.6,-,N/A,,Scattered Clouds,250,2012-01-24 15:15:00
10:35 AM,64.4,60.8,88,30.21,10.0,WSW,5.8,-,N/A,,Overcast,250,2012-01-24 15:35:00
10:55 AM,66.2,60.8,83,30.21,10.0,WSW,4.6,-,N/A,,Mostly Cloudy,240,2012-01-24 15:55:00
11:15 AM,68.0,62.6,83,30.20,10.0,WSW,6.9,-,N/A,,Overcast,250,2012-01-24 16:15:00
11:35 AM,69.8,62.6,78,30.19,10.0,SW,4.6,-,N/A,,Mostly Cloudy,220,2012-01-24 16:35:00
11:55 AM,71.6,62.6,73,30.19,10.0,WSW,8.1,-,N/A,,Clear,240,2012-01-24 16:55:00
12:15 PM,71.6,62.6,73,30.18,10.0,SW,8.1,-,N/A,,Clear,230,2012-01-24 17:15:00
12:35 PM,73.4,62.6,69,30.17,10.0,WSW,4.6,-,N/A,,Scattered Clouds,250,2012-01-24 17:35:00
12:55 PM,75.2,62.6,65,30.16,10.0,SW,4.6,-,N/A,,Mostly Cloudy,220,2012-01-24 17:55:00
1:15 PM,73.4,62.6,69,30.15,10.0,WNW,4.6,-,N/A,,Overcast,290,2012-01-24 18:15:00
1:35 PM,73.4,64.4,73,30.15,10.0,WNW,4.6,-,N/A,,Overcast,300,2012-01-24 18:35:00
1:55 PM,73.4,64.4,73,30.15,10.0,Calm,Calm,-,N/A,,Overcast,0,2012-01-24 18:55:00
2:15 PM,75.2,64.4,69,30.15,10.0,WNW,8.1,-,N/A,,Overcast,300,2012-01-24 19:15:00
2:35 PM,75.2,64.4,69,30.15,10.0,NW,4.6,-,N/A,,Overcast,320,2012-01-24 19:35:00
2:55 PM,73.4,64.4,73,30.15,10.0,NW,5.8,-,N/A,,Overcast,320,2012-01-24 19:55:00
3:15 PM,73.4,64.4,73,30.15,10.0,NW,4.6,-,N/A,,Overcast,320,2012-01-24 20:15:00
3:35 PM,71.6,62.6,73,30.16,10.0,NW,3.5,-,N/A,,Overcast,320,2012-01-24 20:35:00
3:55 PM,71.6,64.4,78,30.16,10.0,NNW,3.5,-,N/A,,Overcast,340,2012-01-24 20:55:00
4:15 PM,71.6,64.4,78,30.16,10.0,Calm,Calm,-,N/A,,Overcast,0,2012-01-24 21:15:00
4:35 PM,71.6,64.4,78,30.16,10.0,Calm,Calm,-,N/A,,Overcast,0,2012-01-24 21:35:00
4:55 PM,71.6,64.4,78,30.16,10.0,Calm,Calm,-,N/A,,Overcast,0,2012-01-24 21:55:00
5:15 PM,71.6,64.4,78,30.16,10.0,Calm,Calm,-,N/A,,Overcast,0,2012-01-24 22:15:00
5:35 PM,69.8,62.6,78,30.16,10.0,Calm,Calm,-,N/A,,Overcast,0,2012-01-24 22:35:00
5:55 PM,69.8,62.6,78,30.17,10.0,Calm,Calm,-,N/A,,Overcast,0,2012-01-24 22:55:00
6:15 PM,68.0,62.6,83,30.17,10.0,SSE,4.6,-,N/A,,Overcast,160,2012-01-24 23:15:00
6:35 PM,66.2,62.6,88,30.18,10.0,SSE,4.6,-,N/A,,Scattered Clouds,160,2012-01-24 23:35:00
6:55 PM,64.4,60.8,88,30.18,10.0,Calm,Calm,-,N/A,,Clear,0,2012-01-24 23:55:00
7:15 PM,64.4,60.8,88,30.19,10.0,Calm,Calm,-,N/A,,Clear,0,2012-01-25 00:15:00
7:35 PM,62.6,59.0,88,30.20,10.0,Calm,Calm,-,N/A,,Scattered Clouds,0,2012-01-25 00:35:00
7:55 PM,62.6,60.8,94,30.20,10.0,Calm,Calm,-,N/A,,Mostly Cloudy,0,2012-01-25 00:55:00
8:15 PM,62.6,60.8,94,30.20,10.0,Calm,Calm,-,N/A,,Overcast,0,2012-01-25 01:15:00
8:35 PM,62.6,60.8,94,30.21,10.0,Calm,Calm,-,N/A,,Mostly Cloudy,0,2012-01-25 01:35:00
8:55 PM,60.8,59.0,94,30.21,1.5,Calm,Calm,-,N/A,,Scattered Clouds,0,2012-01-25 01:55:00
9:15 PM,59.0,59.0,100,30.21,4.0,Calm,Calm,-,N/A,,Clear,0,2012-01-25 02:15:00
9:35 PM,59.0,59.0,100,30.21,0.5,Calm,Calm,-,N/A,,Unknown,0,2012-01-25 02:35:00
9:55 PM,59.0,57.2,94,30.22,0.5,Calm,Calm,-,N/A,,Unknown,0,2012-01-25 02:55:00
10:15 PM,57.2,55.4,94,30.22,0.2,Calm,Calm,-,N/A,,Mostly Cloudy,0,2012-01-25 03:15:00
10:35 PM,59.0,57.2,94,30.22,0.8,Calm,Calm,-,N/A,,Overcast,0,2012-01-25 03:35:00
10:55 PM,59.0,57.2,94,30.22,0.5,Calm,Calm,-,N/A,,Overcast,0,2012-01-25 03:55:00
11:15 PM,55.4,55.4,100,30.22,0.2,Calm,Calm,-,N/A,,Overcast,0,2012-01-25 04:15:00
11:35 PM,55.4,55.4,100,30.22,0.5,Calm,Calm,-,N/A,,Mostly Cloudy,0,2012-01-25 04:35:00
11:55 PM,55.4,53.6,94,30.22,0.2,Calm,Calm,-,N/A,,Overcast,0,2012-01-25 04:55:00